Terminal Aerodrome Forecast
Issued by NWS

Home | Current Version | Previous Version | Text Only | Print | Product List | Glossary On
Versions: 1 2 3 4 5 6 7 8 9 10 11 12 13 14 15 16 17 18 19 20 21 22 23 24 25 26 27 28 29 30 31 32 33 34 35
000
FTAK31 PANC 030535
TAFADL
TAF
PADL 030535Z 0306/0406 04009KT 3SM -RA BR OVC004
      TEMPO 0306/0310 2SM -RA BR OVC003
     FM031000 03007KT 2SM -RA BR OVC003
     FM032100 11007KT 4SM -RA BR SCT003 BKN005 OVC012
      AMD LTD TO CLD VIS AND WIND 0307/0316=

USA.gov is the U.S. government's official web portal to all federal, state and local government web resources and services.